createdAt,value
2022-12-20T00:01:50.021Z,27.02
2022-12-20T00:07:11.020Z,30.73
2022-12-20T00:12:31.675Z,33.90
2022-12-20T00:17:52.499Z,36.53
2022-12-20T00:23:13.121Z,30.88
2022-12-20T00:28:35.902Z,27.02
2022-12-20T00:33:58.982Z,29.77
2022-12-20T00:39:20.087Z,34.97
2022-12-20T00:44:40.874Z,39.33
2022-12-20T00:50:01.869Z,34.35
2022-12-20T00:55:22.349Z,24.23
2022-12-20T01:00:43.104Z,33.15
2022-12-20T01:06:03.826Z,27.00
2022-12-20T01:11:28.114Z,31.90
2022-12-20T01:16:48.885Z,32.80
2022-12-20T01:22:09.472Z,32.28
2022-12-20T01:27:30.279Z,35.08
2022-12-20T01:32:50.919Z,44.28
2022-12-20T01:38:11.590Z,32.30
2022-12-20T01:43:57.757Z,32.08
2022-12-20T01:49:24.557Z,28.77
2022-12-20T01:54:53.184Z,35.33
2022-12-20T02:00:14.610Z,40.03
2022-12-20T02:05:39.468Z,23.42
2022-12-20T02:11:29.525Z,34.10
2022-12-20T02:17:08.253Z,32.70
2022-12-20T02:22:40.954Z,29.67
2022-12-20T02:28:14.758Z,34.15
2022-12-20T02:33:35.294Z,30.30
2022-12-20T02:38:56.119Z,29.48
2022-12-20T02:44:39.277Z,29.15
2022-12-20T02:50:01.063Z,28.45
2022-12-20T02:55:37.897Z,33.13
2022-12-20T03:01:04.572Z,26.83
2022-12-20T03:06:26.291Z,28.38
2022-12-20T03:11:47.155Z,24.20
2022-12-20T03:17:08.808Z,23.23
2022-12-20T03:22:33.658Z,24.05
2022-12-20T03:27:55.389Z,32.53
2022-12-20T03:33:18.263Z,38.70
2022-12-20T03:38:41.352Z,34.47
2022-12-20T03:44:02.594Z,32.65
2022-12-20T03:49:25.394Z,37.00
2022-12-20T03:54:46.059Z,31.67
2022-12-20T04:00:12.702Z,31.48
2022-12-20T04:05:40.762Z,44.33
2022-12-20T04:11:16.537Z,40.78
2022-12-20T04:16:45.595Z,31.95
2022-12-20T04:22:07.820Z,27.73
2022-12-20T04:33:09.164Z,28.30
2022-12-20T04:38:30.279Z,27.85
2022-12-20T04:43:53.607Z,29.55
2022-12-20T04:49:16.572Z,35.10
2022-12-20T04:54:38.716Z,26.67
2022-12-20T05:00:08.944Z,35.73
2022-12-20T05:05:34.656Z,31.35
2022-12-20T05:10:55.487Z,35.38
2022-12-20T05:16:16.593Z,28.58
2022-12-20T05:21:56.350Z,30.38
2022-12-20T05:27:16.992Z,37.28
2022-12-20T05:32:38.338Z,34.90
2022-12-20T05:37:59.176Z,34.28
2022-12-20T05:43:20.949Z,30.75
2022-12-20T05:48:42.258Z,32.65
2022-12-20T05:54:04.356Z,30.30
2022-12-20T05:59:49.276Z,33.75
2022-12-20T06:05:12.987Z,32.30
2022-12-20T06:10:35.076Z,34.92
2022-12-20T06:15:56.473Z,24.88
2022-12-20T06:21:18.006Z,34.45
2022-12-20T06:26:39.325Z,34.30
2022-12-20T06:32:02.243Z,32.05
2022-12-20T06:37:23.052Z,28.58
2022-12-20T06:42:44.633Z,21.48
2022-12-20T06:48:06.495Z,30.40
2022-12-20T06:53:29.139Z,33.65
2022-12-20T06:58:49.811Z,36.28
2022-12-20T07:04:10.884Z,34.67
2022-12-20T07:09:31.856Z,36.70
2022-12-20T07:14:52.783Z,36.92
2022-12-20T07:20:14.707Z,54.30
2022-12-20T07:25:35.637Z,36.20
2022-12-20T07:31:01.631Z,28.80
2022-12-20T07:36:22.519Z,30.65
2022-12-20T07:41:43.230Z,28.75
2022-12-20T07:47:10.043Z,34.22
2022-12-20T07:52:34.439Z,34.00
2022-12-20T07:58:01.101Z,29.52
2022-12-20T08:03:31.872Z,32.70
2022-12-20T08:08:57.744Z,35.35
2022-12-20T08:14:19.607Z,37.92
2022-12-20T08:19:40.350Z,39.03
2022-12-20T08:25:01.575Z,26.40
2022-12-20T08:30:22.286Z,33.10
2022-12-20T08:35:43.023Z,36.03
2022-12-20T08:41:14.847Z,26.67
2022-12-20T08:46:37.193Z,30.73
2022-12-20T08:51:57.840Z,29.67
2022-12-20T08:57:18.572Z,30.38
2022-12-20T09:02:41.308Z,38.33
2022-12-20T09:08:02.341Z,32.72
2022-12-20T09:13:23.063Z,35.80
2022-12-20T09:18:44.362Z,28.17
2022-12-20T09:24:06.294Z,33.53
2022-12-20T09:29:33.580Z,27.65
2022-12-20T09:34:56.133Z,40.35
2022-12-20T09:40:21.052Z,33.67
2022-12-20T09:45:42.694Z,35.55
2022-12-20T09:51:12.537Z,30.23
2022-12-20T09:56:37.882Z,28.50
2022-12-20T10:02:13.277Z,32.03
2022-12-20T10:13:35.531Z,28.35
2022-12-20T10:19:12.947Z,26.13
2022-12-20T10:24:35.608Z,29.73
2022-12-20T10:29:57.115Z,27.27
2022-12-20T10:35:25.451Z,33.78
2022-12-20T10:46:42.984Z,37.08
2022-12-20T10:52:14.185Z,29.40
2022-12-20T10:57:35.189Z,30.52
2022-12-20T11:03:13.047Z,28.70
2022-12-20T11:08:46.773Z,30.80
2022-12-20T11:14:16.044Z,25.92
2022-12-20T11:20:05.107Z,30.25
2022-12-20T11:25:39.511Z,32.30
2022-12-20T11:31:09.239Z,35.30
2022-12-20T11:36:55.122Z,31.95
2022-12-20T11:43:00.756Z,34.88
2022-12-20T11:48:27.267Z,28.30
2022-12-20T11:53:57.753Z,28.80
2022-12-20T11:59:37.161Z,30.08
2022-12-20T12:05:18.279Z,28.13
2022-12-20T12:10:45.103Z,27.23
2022-12-20T12:16:23.360Z,25.08
2022-12-20T12:21:52.561Z,33.00
2022-12-20T12:27:22.684Z,29.90
2022-12-20T12:33:00.514Z,31.63
2022-12-20T12:38:39.278Z,27.33
2022-12-20T12:44:25.684Z,26.20
2022-12-20T12:49:50.257Z,33.67
2022-12-20T12:55:39.241Z,27.23
2022-12-20T13:01:03.312Z,26.55
2022-12-20T13:06:24.054Z,30.90
2022-12-20T13:11:47.494Z,22.83
2022-12-20T13:17:13.210Z,33.95
2022-12-20T13:22:36.257Z,31.45
2022-12-20T13:28:16.958Z,29.35
2022-12-20T13:33:43.549Z,25.90
2022-12-20T13:39:24.383Z,25.58
2022-12-20T13:44:47.549Z,28.20
2022-12-20T13:50:41.800Z,32.85
2022-12-20T13:56:27.552Z,25.95
2022-12-20T14:02:00.303Z,29.15
2022-12-20T14:07:21.358Z,26.20
2022-12-20T14:12:46.229Z,33.45
2022-12-20T14:18:18.192Z,33.95
2022-12-20T14:23:43.594Z,25.23
2022-12-20T14:29:11.600Z,24.75
2022-12-20T14:34:41.349Z,28.40
2022-12-20T14:40:16.607Z,22.60
2022-12-20T14:45:37.275Z,28.63
2022-12-20T14:50:58.079Z,30.35
2022-12-20T14:56:27.836Z,25.10
2022-12-20T15:01:53.190Z,25.70
2022-12-20T15:07:31.557Z,35.58
2022-12-20T15:12:52.271Z,36.30
2022-12-20T15:18:14.966Z,26.27
2022-12-20T15:23:36.232Z,24.58
2022-12-20T15:28:57.670Z,24.95
2022-12-20T15:34:26.932Z,29.25
2022-12-20T15:39:47.983Z,20.53
2022-12-20T15:45:16.098Z,32.85
2022-12-20T15:50:37.246Z,29.27
2022-12-20T15:55:58.340Z,29.08
2022-12-20T16:01:31.183Z,28.35
2022-12-20T16:06:57.068Z,23.92
2022-12-20T16:12:29.584Z,27.92
2022-12-20T16:17:50.678Z,26.55
2022-12-20T16:23:24.797Z,32.97
2022-12-20T16:28:47.976Z,36.53
2022-12-20T16:34:17.104Z,27.67
2022-12-20T16:39:38.090Z,24.90
2022-12-20T16:44:58.756Z,28.08
2022-12-20T16:50:20.511Z,22.83
2022-12-20T16:55:41.311Z,26.05
2022-12-20T17:01:02.253Z,24.88
2022-12-20T17:06:22.897Z,22.35
2022-12-20T17:11:43.805Z,18.98
2022-12-20T17:17:05.011Z,24.13
2022-12-20T17:28:05.484Z,22.17
2022-12-20T17:33:26.298Z,20.60
2022-12-20T17:38:49.636Z,30.23
2022-12-20T17:44:23.817Z,20.38
2022-12-20T17:49:44.913Z,22.70
2022-12-20T17:55:06.333Z,23.10
2022-12-20T18:00:36.603Z,19.25
2022-12-20T18:06:07.547Z,16.75
2022-12-20T18:11:29.233Z,23.00
2022-12-20T18:16:50.153Z,22.70
2022-12-20T18:22:10.879Z,22.23
2022-12-20T18:27:31.759Z,19.40
2022-12-20T18:32:52.515Z,33.38
2022-12-20T18:38:13.396Z,27.77
2022-12-20T18:43:35.327Z,24.10
2022-12-20T18:48:58.507Z,27.65
2022-12-20T18:54:19.256Z,33.28
2022-12-20T18:59:39.874Z,35.03
2022-12-20T19:05:00.855Z,33.03
2022-12-20T19:10:21.655Z,31.80
2022-12-20T19:15:45.121Z,31.75
2022-12-20T19:21:17.113Z,23.73
2022-12-20T19:26:39.160Z,28.40
2022-12-20T19:32:00.305Z,35.17
2022-12-20T19:37:21.005Z,38.10
2022-12-20T19:42:44.113Z,36.78
2022-12-20T19:48:05.413Z,42.33
2022-12-20T19:53:26.267Z,39.65
2022-12-20T19:58:47.941Z,43.20
2022-12-20T20:04:10.171Z,42.30
2022-12-20T20:09:31.074Z,48.15
2022-12-20T20:14:53.362Z,32.05
2022-12-20T20:20:14.498Z,27.65
2022-12-20T20:25:35.546Z,31.25
2022-12-20T20:30:56.775Z,30.80
2022-12-20T20:36:20.535Z,31.05
2022-12-20T20:41:42.865Z,26.50
2022-12-20T20:47:03.596Z,34.72
2022-12-20T20:52:24.333Z,35.83
2022-12-20T20:57:45.121Z,28.45
2022-12-20T21:03:05.939Z,33.22
2022-12-20T21:08:27.167Z,34.33
2022-12-20T21:13:47.625Z,34.75
2022-12-20T21:19:09.568Z,31.63
2022-12-20T21:24:30.981Z,38.47
2022-12-20T21:29:52.643Z,29.33
2022-12-20T21:35:13.688Z,35.17
2022-12-20T21:40:35.229Z,30.60
2022-12-20T21:45:56.191Z,31.75
2022-12-20T21:51:21.287Z,34.85
2022-12-20T21:56:42.276Z,37.15
2022-12-20T22:02:04.203Z,41.03
2022-12-20T22:07:25.287Z,50.53
2022-12-20T22:12:46.022Z,48.17
2022-12-20T22:18:08.336Z,53.15
2022-12-20T22:23:29.173Z,62.97
2022-12-20T22:28:58.919Z,74.03
2022-12-20T22:34:20.364Z,47.97
2022-12-20T22:39:41.276Z,31.35
2022-12-20T22:45:02.476Z,33.78
2022-12-20T22:50:23.367Z,33.85
2022-12-20T22:55:44.207Z,28.17
2022-12-20T23:01:08.313Z,40.05
2022-12-20T23:06:29.386Z,39.60
2022-12-20T23:12:08.952Z,37.13
2022-12-20T23:17:29.530Z,31.60
2022-12-20T23:22:50.952Z,37.40
2022-12-20T23:28:11.815Z,40.97
2022-12-20T23:33:32.817Z,42.20
2022-12-20T23:38:53.481Z,34.65
2022-12-20T23:44:14.267Z,36.10
2022-12-20T23:49:34.950Z,32.60
2022-12-20T23:54:55.687Z,31.67
